Liberty, West Virginia
Current Conditions -  °F | °C
As of 4:54 PM on Wednesday 28 Jan 2015 (Local Time) from KCRW Reporting Station
Few Clouds Few Clouds  
Wind Chill: 32°   Ceiling: Unl
Heat Index: 32°   Visibility: 10mi
Dew Point: 13°   Wind: 0mph
Humidity: 45%   Direction: NA
Pressure: 30.31"   Gusts: NA
Location:  38.6°N, 81.71°W
Report Text: KCRW 282154Z 00000KT 10SM FEW250 00/M11 A3031 RMK AO2 SLP274 T00001106
Loading
Personal Weather Stations






























Interactive Weather Map New forecast layout! Learn more

10-Day Weather Forecast

Advertisements
Track Severe Weather on mobile